Fairbanks, AK

5:45 AM AKST on February 12, 2016 (GMT -0900)
Fairbanks International | | Change Station
CLOSE
Current Station
Airport
Location: Fairbanks,
Elevation: 433 ft
Nearby Weather Stations

Elev 433 ft 64.80 °N, 147.88 °W | Updated 52 minutes ago

Mostly Cloudy
Mostly Cloudy
0 °F
Feels Like 0 °F
N
0
Wind Variable Wind from North

Today
High -- | Low -- °F
--% Chance of Precip.
Yesterday
High -- | Low -- °F
Precip. -- in
Pressure 29.60 in
Visibility 9.0 miles
Clouds Few 12000 ft
Mostly Cloudy 20000 ft
Dew Point -4 °F
Humidity 83%
Rainfall 0.00 in
Snow Depth Not available.
9:01 AM 5:11 PM
Waxing Crescent, 21% visible
METAR PAFA 121353Z 00000KT 9SM FEW120 BKN200 M18/M20 A2955 RMK AO2 SLP021 T11781200 $
Pressure 29.60 in
Visibility 9.0 miles
Clouds Few 12000 ft
Mostly Cloudy 20000 ft
Dew Point -4 °F
Humidity 83%
Rainfall 0.00 in
Snow Depth Not available.
9:01 AM 5:11 PM
Waxing Crescent, 21% visible
METAR PAFA 121353Z 00000KT 9SM FEW120 BKN200 M18/M20 A2955 RMK AO2 SLP021 T11781200 $

10-Day Weather Forecast

Almanac

Astronomy

Feb. 12, 2016 Rise Set
Actual Time
Civil Twilight
Nautical Twilight
Astronomical Twilight
Moon
Length of Visible Light
Length of Day
Tomorrow will be .
, % of the Moon is Illuminated

Today's Extremes

State Highs State Lows

Community

WunderPhotos

Upload Photos

1,892,318 photos uploaded!

WunderBlog® & News

Nearby

Air Quality

  Air Quality AQ Index Pollutant
Not available.

Snow Depth

Station Depth Elevation

Earthquake Activity

City Distance Mag. Time & Date
Minimum magnitude displayed is 2.5.

Coastal Water Temperatures

Place Temperature

Stations

Nearby Weather Stations

Station Location Temp. Windchill Dew Point Humidity Wind Precip. Elev Updated Type
                   

Watches & Warnings

There are currently no watches in effect.